Chilhowee, Missouri
Current Conditions -  °F | °C
As of 9:15 AM on Sunday 21 Dec 2014 (Local Time) from KRCM Reporting Station
Haze Haze  
Wind Chill: 34°   Ceiling: 600
Heat Index: 39°   Visibility: 3mi
Dew Point: 37°   Wind: 8mph
Humidity: 93%   Direction: 150°SSE
Pressure: 30.06"   Gusts: NA
Location:  38.59°N, 93.85°W
Report Text: KRCM 211515Z AUTO 15007KT 3SM BR OVC006 04/03 A3006 RMK AO2
Loading
Personal Weather Stations






























Interactive Weather Map New forecast layout! Learn more

10-Day Weather Forecast

Advertisements
Track Severe Weather on mobile